Time;durP1;ratioP1;P1;durP2;ratioP2;P2;SDS_P1;SDS_P2;PMS_P1;PMS_P2;Temp;Humidity;BMP_temperature;BMP_pressure;BME280_temperature;BME280_humidity;BME280_pressure;Samples;Min_cycle;Max_cycle;Signal;HPM_P1;HPM_P2
2022/02/01 00:01:18;;;;;;;20.15;9.05;;;;;;;-0.94;79.76;100197.34;1593447;89;21466;-70
2022/02/01 00:03:54;;;;;;;26.25;9.38;;;;;;;-0.94;79.77;100192.26;1601594;87;20921;-70
2022/02/01 00:07:05;;;;;;;23.85;9.55;;;;;;;-0.93;79.75;100182.97;1589456;90;21052;-70
2022/02/01 00:09:52;;;;;;;18.90;8.58;;;;;;;-0.95;79.73;100188.42;1567918;90;21036;-70
2022/02/01 00:12:42;;;;;;;20.10;8.30;;;;;;;-0.93;79.82;100197.78;1587495;88;20940;-70
2022/02/01 00:36:06;;;;;;;32.75;11.15;;;;;;;-0.95;79.86;100230.29;1619231;88;20929;-70
2022/02/01 00:38:56;;;;;;;23.83;9.35;;;;;;;-0.95;79.85;100232.83;1613423;88;20929;-70
2022/02/01 00:41:35;;;;;;;29.67;8.98;;;;;;;-0.95;79.84;100231.55;1611496;87;20933;-70
2022/02/01 00:44:20;;;;;;;22.70;8.15;;;;;;;-0.96;79.86;100236.19;1618478;88;20963;-70
2022/02/01 00:47:07;;;;;;;20.35;9.00;;;;;;;-0.96;79.86;100237.05;1606851;87;20921;-70
2022/02/01 00:49:51;;;;;;;25.65;9.45;;;;;;;-0.96;79.97;100243.39;1604728;87;20982;-70
2022/02/01 00:52:35;;;;;;;33.60;10.93;;;;;;;-0.94;79.94;100241.74;1592039;88;20933;-70
2022/02/01 00:55:20;;;;;;;32.95;10.15;;;;;;;-0.93;79.98;100244.73;1593128;88;21751;-70
2022/02/01 00:58:04;;;;;;;31.23;10.30;;;;;;;-0.92;79.94;100246.45;1593939;89;21393;-70
2022/02/01 01:00:48;;;;;;;24.40;9.83;;;;;;;-0.90;80.01;100252.42;1602887;87;21394;-70
2022/02/01 01:03:33;;;;;;;25.65;8.70;;;;;;;-0.87;80.00;100245.29;1597818;88;21329;-71
2022/02/01 01:06:17;;;;;;;20.17;8.25;;;;;;;-0.85;79.97;100243.64;1618480;88;21096;-71
2022/02/01 01:09:02;;;;;;;18.17;8.35;;;;;;;-0.84;79.99;100247.90;1616418;88;21089;-70
2022/02/01 01:11:52;;;;;;;23.35;10.25;;;;;;;-0.83;80.05;100244.13;1614404;87;21076;-70
2022/02/01 01:15:03;;;;;;;27.05;9.85;;;;;;;-0.81;80.06;100250.10;1611025;87;21096;-70
2022/02/01 01:44:42;;;;;;;19.15;7.35;;;;;;;-0.69;80.15;100274.52;1608792;87;21066;-70
2022/02/01 01:53:32;;;;;;;18.90;7.00;;;;;;;-0.68;80.19;100262.27;1593327;89;21017;-70
2022/02/01 01:56:17;;;;;;;12.85;6.28;;;;;;;-0.66;80.22;100257.22;1593445;89;20969;-71
2022/02/01 01:59:04;;;;;;;13.75;6.92;;;;;;;-0.64;80.19;100255.99;1610587;88;21422;-70
2022/02/01 02:01:50;;;;;;;16.57;5.70;;;;;;;-0.64;80.23;100256.84;1613183;87;20937;-70
2022/02/01 02:04:34;;;;;;;11.33;6.08;;;;;;;-0.63;80.25;100252.22;1613029;88;21436;-70
2022/02/01 02:07:19;;;;;;;12.65;6.03;;;;;;;-0.62;80.22;100251.39;1580286;90;21459;-70
2022/02/01 02:10:05;;;;;;;17.00;6.17;;;;;;;-0.62;80.26;100249.27;1588092;88;20968;-70
2022/02/01 02:13:03;;;;;;;12.55;6.17;;;;;;;-0.62;80.17;100241.65;1610030;87;21005;-70
2022/02/01 02:15:50;;;;;;;12.35;6.22;;;;;;;-0.63;80.22;100234.86;1608018;87;20994;-70
2022/02/01 02:18:32;;;;;;;13.03;5.83;;;;;;;-0.64;80.19;100233.14;1609670;89;21373;-70
2022/02/01 02:21:21;;;;;;;12.20;6.05;;;;;;;-0.67;80.20;100232.66;1600771;87;20973;-70
2022/02/01 02:24:07;;;;;;;11.18;6.40;;;;;;;-0.65;80.22;100231.42;1592817;89;21016;-70
2022/02/01 02:26:52;;;;;;;18.25;6.00;;;;;;;-0.67;80.24;100232.66;1595921;88;20981;-70
2022/02/01 02:29:37;;;;;;;11.75;5.60;;;;;;;-0.67;80.23;100229.70;1593540;88;21412;-70
2022/02/01 02:32:21;;;;;;;12.98;5.75;;;;;;;-0.69;80.21;100232.63;1598675;87;20925;-70
2022/02/01 02:35:06;;;;;;;14.10;6.92;;;;;;;-0.70;80.21;100232.17;1618327;88;20915;-70
2022/02/01 02:37:51;;;;;;;19.55;5.85;;;;;;;-0.71;80.22;100239.75;1616376;88;21422;-70
2022/02/01 02:40:58;;;;;;;20.40;6.87;;;;;;;-0.72;80.29;100243.97;1612694;88;20961;-70
2022/02/01 02:46:25;;;;;;;11.95;6.72;;;;;;;-0.70;80.33;100241.06;1614693;87;20951;-70
2022/02/01 02:49:13;;;;;;;15.37;6.13;;;;;;;-0.71;80.33;100246.96;1606773;88;20962;-70
2022/02/01 02:51:57;;;;;;;15.32;6.72;;;;;;;-0.71;80.35;100243.15;1614620;87;20946;-71
2022/02/01 02:54:42;;;;;;;14.65;5.95;;;;;;;-0.69;80.41;100240.65;1617597;88;21086;-70
2022/02/01 02:57:27;;;;;;;12.05;7.35;;;;;;;-0.69;80.41;100250.39;1599545;88;21112;-70
2022/02/01 03:00:13;;;;;;;19.23;8.38;;;;;;;-0.67;80.39;100252.97;1592189;89;21068;-70
2022/02/01 03:02:57;;;;;;;19.67;8.13;;;;;;;-0.65;80.47;100253.86;1617062;87;21017;-71
2022/02/01 03:05:42;;;;;;;17.32;8.00;;;;;;;-0.63;80.51;100249.67;1602675;88;21120;-70
2022/02/01 03:08:28;;;;;;;23.57;9.05;;;;;;;-0.60;80.55;100249.75;1592124;88;21123;-70
2022/02/01 03:11:15;;;;;;;;;;;;;;;-0.58;80.53;100251.91;1595733;88;20973;-70
2022/02/01 03:14:01;;;;;;;19.32;8.38;;;;;;;-0.57;80.62;100245.16;1604838;88;20123;-70
2022/02/01 03:16:59;;;;;;;24.12;8.45;;;;;;;-0.56;80.59;100253.22;1617041;88;21552;-70
2022/02/01 03:19:52;;;;;;;22.50;8.63;;;;;;;-0.55;80.56;100251.98;1603478;88;21132;-70
2022/02/01 03:22:36;;;;;;;14.65;8.40;;;;;;;-0.54;80.59;100246.08;1610518;88;21571;-70
2022/02/01 03:25:20;;;;;;;17.48;8.28;;;;;;;-0.52;80.61;100246.94;1617872;88;21041;-70
2022/02/01 03:28:05;;;;;;;18.87;8.68;;;;;;;-0.50;80.67;100244.44;1608189;88;21072;-70
2022/02/01 03:30:49;;;;;;;18.15;9.15;;;;;;;-0.48;80.63;100244.91;1612395;88;21100;-70
2022/02/01 03:33:34;;;;;;;17.60;8.53;;;;;;;-0.47;80.67;100244.09;1613794;87;21044;-70
2022/02/01 03:36:18;;;;;;;14.83;7.40;;;;;;;-0.46;80.65;100247.49;1613095;88;21505;-70
2022/02/01 03:39:03;;;;;;;23.02;9.73;;;;;;;-0.46;80.62;100234.80;1601401;87;21692;-70
2022/02/01 03:41:48;;;;;;;17.10;10.50;;;;;;;-0.45;80.61;100233.56;1606442;89;21061;-71
2022/02/01 03:44:33;;;;;;;20.57;9.68;;;;;;;-0.44;80.65;100229.34;1569676;89;21061;-71
2022/02/01 03:47:18;;;;;;;21.10;9.20;;;;;;;-0.43;80.66;100228.52;1606319;87;21073;-71
2022/02/01 03:50:09;;;;;;;21.60;9.73;;;;;;;-0.43;80.61;100230.64;1590669;88;21100;-71
2022/02/01 03:52:53;;;;;;;20.52;9.95;;;;;;;-0.46;80.60;100231.84;1585718;89;20945;-71
2022/02/01 03:55:38;;;;;;;18.45;9.68;;;;;;;-0.48;80.56;100228.82;1593660;89;21029;-71
2022/02/01 03:58:22;;;;;;;19.32;9.40;;;;;;;-0.51;80.57;100237.64;1582478;90;20958;-70
2022/02/01 04:01:06;;;;;;;17.95;8.88;;;;;;;-0.54;80.55;100238.46;1551800;89;20927;-70
2022/02/01 04:03:50;;;;;;;20.35;9.70;;;;;;;-0.55;80.56;100231.67;1605551;86;21915;-70
2022/02/01 04:06:35;;;;;;;17.48;8.63;;;;;;;-0.59;80.58;100240.04;1607926;89;21339;-70
2022/02/01 04:09:22;;;;;;;18.15;9.15;;;;;;;-0.61;80.54;100241.69;1607913;87;20954;-70
2022/02/01 04:12:08;;;;;;;20.45;9.38;;;;;;;-0.65;80.51;100236.50;1582211;89;20950;-70
2022/02/01 04:14:54;;;;;;;16.82;8.53;;;;;;;-0.68;80.54;100235.61;1582300;89;26398;-71
2022/02/01 04:17:39;;;;;;;18.75;8.88;;;;;;;-0.70;80.61;100232.17;1604145;87;21459;-71
2022/02/01 04:20:26;;;;;;;18.32;9.38;;;;;;;-0.69;80.64;100236.84;1607041;89;20920;-70
2022/02/01 04:23:10;;;;;;;19.73;9.98;;;;;;;-0.68;80.73;100235.61;1582521;89;20987;-70
2022/02/01 04:25:54;;;;;;;20.72;10.03;;;;;;;-0.67;80.73;100238.59;1582393;89;20972;-70
2022/02/01 04:28:39;;;;;;;30.32;12.53;;;;;;;-0.66;80.75;100238.18;1596058;89;20962;-70
2022/02/01 04:31:23;;;;;;;38.33;14.20;;;;;;;-0.65;80.77;100242.44;1595126;89;20894;-70
2022/02/01 04:34:07;;;;;;;25.77;12.18;;;;;;;-0.64;80.76;100239.48;1608016;87;20922;-71
2022/02/01 04:36:52;;;;;;;27.17;11.50;;;;;;;-0.65;80.77;100233.96;1593364;89;20948;-70
2022/02/01 04:39:36;;;;;;;27.20;11.30;;;;;;;-0.64;80.76;100230.60;1596800;89;21053;-70
2022/02/01 04:42:21;;;;;;;22.10;10.58;;;;;;;-0.64;80.85;100222.58;1604707;88;21037;-71
2022/02/01 04:45:11;;;;;;;25.02;11.45;;;;;;;-0.62;80.87;100225.14;1602956;89;21388;-71
2022/02/01 04:47:56;;;;;;;24.37;11.25;;;;;;;-0.62;80.91;100217.12;1596583;89;21147;-70
2022/02/01 04:50:41;;;;;;;27.95;11.45;;;;;;;-0.60;80.86;100207.86;1585600;88;21489;-71
2022/02/01 04:53:25;;;;;;;27.58;12.73;;;;;;;-0.58;80.95;100214.23;1604223;89;21045;-70
2022/02/01 04:56:10;;;;;;;26.93;12.05;;;;;;;-0.56;80.94;100197.36;1592399;89;21075;-70
2022/02/01 04:58:54;;;;;;;24.00;11.22;;;;;;;-0.55;80.95;100196.53;1604737;89;21005;-70
2022/02/01 05:01:38;;;;;;;29.77;11.73;;;;;;;-0.55;80.93;100210.08;1603747;88;21069;-70
2022/02/01 05:04:23;;;;;;;26.90;11.43;;;;;;;-0.54;80.95;100204.18;1585629;88;21099;-70
2022/02/01 05:07:08;;;;;;;24.37;11.48;;;;;;;-0.52;81.01;100201.23;1603954;89;21064;-70
2022/02/01 05:09:54;;;;;;;26.33;12.03;;;;;;;-0.51;81.01;100200.41;1599470;89;21129;-70
2022/02/01 05:12:39;;;;;;;29.35;11.97;;;;;;;-0.49;81.00;100196.63;1589789;89;21664;-70
2022/02/01 05:15:23;;;;;;;26.65;11.83;;;;;;;-0.49;81.00;100197.48;1581714;88;20938;-70
2022/02/01 05:18:14;;;;;;;24.43;11.68;;;;;;;-0.48;81.01;100192.86;1572768;89;20973;-70
2022/02/01 05:21:06;;;;;;;21.37;11.00;;;;;;;-0.46;81.04;100191.20;1603504;87;21107;-70
2022/02/01 05:23:48;;;;;;;29.00;11.93;;;;;;;-0.44;81.01;100192.09;1601360;87;21111;-70
2022/02/01 05:26:32;;;;;;;27.10;11.73;;;;;;;-0.41;81.08;100188.77;1600881;88;20951;-70
2022/02/01 05:29:20;;;;;;;22.05;10.82;;;;;;;-0.38;81.08;100199.84;1598799;87;21719;-70
2022/02/01 05:32:22;;;;;;;29.90;12.13;;;;;;;-0.37;81.12;100190.14;1600627;88;21021;-71
2022/02/01 05:34:56;;;;;;;26.45;11.83;;;;;;;-0.35;81.13;100182.13;1601239;88;21496;-72
2022/02/01 05:37:40;;;;;;;38.33;11.38;;;;;;;-0.30;81.10;100182.64;1602145;88;21519;-70
2022/02/01 05:40:26;;;;;;;28.77;12.58;;;;;;;-0.28;81.17;100188.61;1602907;88;21038;-70
2022/02/01 05:43:16;;;;;;;30.75;11.90;;;;;;;-0.24;81.21;100188.70;1601563;88;21416;-70
2022/02/01 05:45:59;;;;;;;36.60;13.35;;;;;;;-0.21;81.22;100195.54;1599925;87;20911;-70
2022/02/01 05:48:44;;;;;;;31.95;14.10;;;;;;;-0.19;81.18;100196.02;1603695;87;20992;-72
2022/02/01 05:51:28;;;;;;;31.75;12.18;;;;;;;-0.19;81.18;100194.74;1586179;89;20922;-72
2022/02/01 05:54:12;;;;;;;31.25;11.93;;;;;;;-0.17;81.19;100194.36;1583529;87;21508;-72
2022/02/01 05:56:58;;;;;;;31.90;12.88;;;;;;;-0.14;81.24;100207.13;1593624;88;21512;-72
2022/02/01 05:59:42;;;;;;;26.90;12.68;;;;;;;-0.11;81.30;100207.19;1581045;90;21360;-70
2022/02/01 06:02:26;;;;;;;36.38;14.65;;;;;;;-0.08;81.27;100209.80;1593644;88;21323;-70
2022/02/01 06:05:11;;;;;;;35.48;14.73;;;;;;;-0.06;81.30;100213.23;1585360;89;21001;-70
2022/02/01 06:07:55;;;;;;;39.33;13.88;;;;;;;-0.04;81.31;100213.26;1605853;88;21444;-70
2022/02/01 06:10:39;;;;;;;46.85;16.15;;;;;;;-0.04;81.26;100220.47;1604621;89;21255;-70
2022/02/01 06:13:24;;;;;;;39.78;15.45;;;;;;;-0.02;81.33;100225.58;1593378;89;20942;-71
2022/02/01 06:16:08;;;;;;;42.15;14.40;;;;;;;0.00;81.36;100217.13;1598934;88;20971;-70
2022/02/01 06:18:52;;;;;;;40.17;14.33;;;;;;;0.03;81.41;100221.83;1601596;89;20942;-68
2022/02/01 06:21:37;;;;;;;37.30;13.53;;;;;;;0.05;81.41;100218.91;1606401;89;20950;-68
2022/02/01 06:24:22;;;;;;;35.95;13.35;;;;;;;0.07;81.44;100216.84;1599708;88;20918;-68
2022/02/01 06:27:06;;;;;;;36.23;13.85;;;;;;;0.09;81.46;100217.73;1601261;88;21314;-69
2022/02/01 06:29:51;;;;;;;40.03;12.70;;;;;;;0.13;81.41;100222.46;1604773;87;20958;-69
2022/02/01 06:32:39;;;;;;;31.27;13.05;;;;;;;0.15;81.48;100209.37;1599354;87;20981;-69
2022/02/01 06:35:25;;;;;;;38.28;14.35;;;;;;;0.18;81.47;100217.05;1583809;88;21499;-69
2022/02/01 06:38:10;;;;;;;40.03;15.48;;;;;;;0.19;81.45;100209.45;1605329;87;21387;-69
2022/02/01 06:40:54;;;;;;;39.17;14.33;;;;;;;0.23;81.50;100210.37;1607034;87;21047;-69
2022/02/01 06:43:39;;;;;;;37.73;14.58;;;;;;;0.25;81.45;100208.72;1599558;87;21054;-69
2022/02/01 06:46:23;;;;;;;34.63;13.00;;;;;;;0.26;81.47;100206.20;1607105;87;21133;-69
2022/02/01 06:49:11;;;;;;;27.27;12.15;;;;;;;0.28;81.54;100208.77;1589726;88;21432;-69
2022/02/01 06:51:54;;;;;;;26.42;11.63;;;;;;;0.29;81.51;100199.05;1601604;87;21084;-69
2022/02/01 06:54:40;;;;;;;24.70;11.38;;;;;;;0.31;81.53;100193.16;1606508;88;21167;-69
2022/02/01 06:57:25;;;;;;;27.30;10.15;;;;;;;0.33;81.55;100204.22;1607761;87;21088;-69
2022/02/01 07:00:10;;;;;;;28.67;11.48;;;;;;;0.37;81.58;100207.67;1601489;88;21124;-70
2022/02/01 07:02:55;;;;;;;29.75;12.15;;;;;;;0.37;81.50;100212.77;1606889;87;21104;-69
2022/02/01 07:05:40;;;;;;;25.37;11.03;;;;;;;0.38;81.54;100212.34;1589791;88;21131;-69
2022/02/01 07:08:25;;;;;;;23.52;10.43;;;;;;;0.40;81.58;100215.78;1604370;87;21104;-69
2022/02/01 07:11:11;;;;;;;30.32;9.83;;;;;;;0.43;81.57;100200.16;1604387;88;21083;-69
2022/02/01 07:13:55;;;;;;;22.62;10.05;;;;;;;0.45;81.64;100202.73;1603755;87;25345;-67
2022/02/01 07:16:40;;;;;;;22.70;9.08;;;;;;;0.47;81.61;100199.38;1603602;87;20939;-67
2022/02/01 07:19:24;;;;;;;23.73;9.08;;;;;;;0.49;81.59;100198.14;1606845;87;21004;-68
2022/02/01 07:22:08;;;;;;;22.15;9.13;;;;;;;0.50;81.57;100190.54;1608024;87;21781;-70
2022/02/01 07:25:11;;;;;;;24.12;8.85;;;;;;;0.52;81.59;100189.30;1584914;88;21599;-69
2022/02/01 07:27:47;;;;;;;20.05;8.23;;;;;;;0.52;81.61;100183.76;1605123;87;20972;-69
2022/02/01 07:30:32;;;;;;;18.65;8.65;;;;;;;0.53;81.64;100179.53;1607108;87;21004;-69
2022/02/01 07:33:16;;;;;;;19.00;9.53;;;;;;;0.56;81.66;100182.13;1608749;87;20979;-69
2022/02/01 07:36:01;;;;;;;19.35;8.40;;;;;;;0.57;81.67;100174.94;1604306;87;21531;-70
2022/02/01 07:38:46;;;;;;;19.57;8.23;;;;;;;0.58;81.71;100162.66;1597970;88;20991;-70
2022/02/01 07:41:30;;;;;;;21.52;8.50;;;;;;;0.61;81.68;100156.35;1606552;87;21343;-69
2022/02/01 07:44:15;;;;;;;22.67;9.23;;;;;;;0.61;81.75;100152.12;1605744;87;20978;-70
2022/02/01 07:46:59;;;;;;;18.12;8.10;;;;;;;0.65;81.77;100155.57;1598389;87;20933;-70
2022/02/01 07:49:44;;;;;;;20.57;9.00;;;;;;;0.69;81.77;100146.30;1600245;87;20968;-70
2022/02/01 07:52:28;;;;;;;23.40;8.83;;;;;;;0.70;81.72;100143.78;1605516;86;20958;-69
2022/02/01 07:55:12;;;;;;;21.42;8.70;;;;;;;0.72;81.76;100145.08;1599587;87;20943;-70
2022/02/01 07:57:57;;;;;;;19.40;8.40;;;;;;;0.74;81.75;100147.23;1588703;88;20991;-70
2022/02/01 08:00:42;;;;;;;17.30;8.53;;;;;;;0.76;81.78;100148.97;1602262;87;20985;-70
2022/02/01 08:03:26;;;;;;;17.62;7.87;;;;;;;0.79;81.83;100151.98;1595912;87;20944;-69
2022/02/01 08:06:12;;;;;;;14.55;7.60;;;;;;;0.81;81.84;100156.67;1600216;87;20922;-70
2022/02/01 08:08:57;;;;;;;23.30;9.03;;;;;;;0.82;81.76;100145.25;1594929;87;21017;-69
2022/02/01 08:11:42;;;;;;;18.12;8.75;;;;;;;0.82;81.84;100146.94;1601788;87;21032;-70
2022/02/01 08:17:22;;;;;;;15.30;8.20;;;;;;;0.85;81.95;100132.58;1579639;88;20970;-70
2022/02/01 08:20:02;;;;;;;15.03;8.65;;;;;;;0.86;81.89;100133.43;1602337;87;21408;-70
2022/02/01 08:28:05;;;;;;;23.50;8.50;;;;;;;0.95;81.96;100128.48;1861771;76;22876;-69
2022/02/01 08:30:55;;;;;;;21.17;8.68;;;;;;;0.93;82.00;100137.37;1805306;77;21515;-72
2022/02/01 08:33:42;;;;;;;18.67;7.75;;;;;;;0.96;82.02;100131.47;1819534;77;21058;-70
2022/02/01 08:36:27;;;;;;;22.58;7.83;;;;;;;0.99;82.04;100130.23;1770727;80;20956;-69
2022/02/01 08:39:11;;;;;;;23.47;8.38;;;;;;;1.02;82.00;100134.52;1773118;78;21430;-70
2022/02/01 08:41:55;;;;;;;18.35;7.92;;;;;;;1.03;82.07;100126.05;1764724;79;20976;-70
2022/02/01 08:44:42;;;;;;;23.38;7.42;;;;;;;1.03;81.97;100116.72;1769768;79;21284;-70
2022/02/01 08:47:27;;;;;;;20.70;8.38;;;;;;;1.05;82.04;100122.66;1770040;79;21090;-70
2022/02/01 08:50:11;;;;;;;18.77;8.40;;;;;;;1.05;82.03;100126.48;1751720;80;20947;-70
2022/02/01 08:53:12;;;;;;;23.22;7.97;;;;;;;1.04;82.02;100118.41;1772636;80;21073;-70
2022/02/01 08:58:39;;;;;;;20.05;8.33;;;;;;;1.07;82.06;100121.41;1765447;80;21442;-68
2022/02/01 09:01:24;;;;;;;19.40;7.60;;;;;;;1.06;82.07;100115.46;1771560;80;21339;-68
2022/02/01 09:04:09;;;;;;;22.32;8.23;;;;;;;1.05;82.10;100110.34;1765378;80;21088;-69
2022/02/01 09:06:55;;;;;;;22.35;8.60;;;;;;;1.05;82.12;100109.08;1766627;79;21398;-69
2022/02/01 09:09:39;;;;;;;18.60;8.28;;;;;;;1.05;82.15;100098.47;1772559;80;20965;-70
2022/02/01 09:12:25;;;;;;;17.87;7.33;;;;;;;1.08;82.17;100093.84;1770520;80;21001;-69
2022/02/01 09:15:11;;;;;;;16.37;7.50;;;;;;;1.09;82.13;100091.73;1748869;80;21068;-69
2022/02/01 09:17:58;;;;;;;63.68;20.25;;;;;;;1.09;82.14;100084.95;1748522;81;21131;-69
2022/02/01 09:20:43;;;;;;;15.13;7.67;;;;;;;1.09;82.16;100087.50;1745133;79;20987;-69
2022/02/01 09:23:27;;;;;;;20.12;7.65;;;;;;;1.10;82.13;100086.66;1737960;81;21559;-69
2022/02/01 09:26:12;;;;;;;15.83;7.37;;;;;;;1.09;82.20;100077.31;1744943;80;21055;-69
2022/02/01 09:28:56;;;;;;;14.33;6.72;;;;;;;1.08;82.20;100078.16;1753309;80;21151;-69
2022/02/01 09:31:41;;;;;;;16.52;7.85;;;;;;;1.08;82.23;100074.33;1793607;77;21023;-70
2022/02/01 09:34:26;;;;;;;13.62;7.17;;;;;;;1.07;82.24;100076.86;1746874;80;21051;-70
2022/02/01 09:37:10;;;;;;;21.60;8.05;;;;;;;1.06;82.25;100079.82;1797744;77;20894;-70
2022/02/01 09:39:54;;;;;;;14.63;7.65;;;;;;;1.07;82.29;100082.80;1794760;77;20913;-69
2022/02/01 09:42:39;;;;;;;12.53;7.22;;;;;;;1.07;82.26;100081.53;1793268;77;20952;-70
2022/02/01 09:45:26;;;;;;;16.00;7.60;;;;;;;1.08;82.32;100076.88;1794296;77;21000;-70
2022/02/01 09:48:11;;;;;;;17.07;7.08;;;;;;;1.08;82.29;100073.06;1812515;77;20932;-69
2022/02/01 09:50:55;;;;;;;10.32;6.85;;;;;;;1.06;82.28;100075.14;1798500;77;20885;-70
2022/02/01 09:53:40;;;;;;;17.80;7.80;;;;;;;1.05;82.31;100078.11;1783776;77;21857;-70
2022/02/01 09:56:26;;;;;;;11.50;5.62;;;;;;;1.06;82.33;100083.64;1785704;77;20929;-70
2022/02/01 09:59:22;;;;;;;15.72;7.75;;;;;;;1.07;82.35;100080.67;1799088;77;21401;-70
2022/02/01 10:02:10;;;;;;;23.50;13.83;;;;;;;1.08;82.36;100074.33;1762980;77;20873;-70
2022/02/01 10:05:03;;;;;;;18.12;9.73;;;;;;;1.12;82.47;100067.17;1777898;77;20933;-70
2022/02/01 10:07:54;;;;;;;13.98;8.00;;;;;;;1.16;82.47;100057.88;1772942;77;20917;-70
2022/02/01 10:10:39;;;;;;;14.35;8.25;;;;;;;1.15;82.43;100050.66;1791397;77;20877;-70
2022/02/01 10:13:23;;;;;;;11.38;7.87;;;;;;;1.15;82.44;100041.75;1792401;77;20972;-70
2022/02/01 10:16:30;;;;;;;15.40;8.70;;;;;;;1.18;82.49;100037.97;1790469;77;21495;-71
2022/02/01 10:19:11;;;;;;;13.27;8.23;;;;;;;1.22;82.49;100041.41;1798518;77;21052;-71
2022/02/01 10:22:00;;;;;;;20.40;11.00;;;;;;;1.24;82.49;100032.10;1787405;77;21177;-70
2022/02/01 10:24:44;;;;;;;17.17;10.35;;;;;;;1.27;82.43;100025.77;1783365;77;21032;-70
2022/02/01 10:27:32;;;;;;;12.73;7.03;;;;;;;1.30;82.51;100029.21;1795355;77;21028;-70
2022/02/01 10:30:19;;;;;;;14.35;8.08;;;;;;;1.34;82.51;100025.01;1797020;77;21023;-71
2022/02/01 10:33:41;;;;;;;11.25;7.65;;;;;;;1.38;82.47;100011.89;1756583;79;21038;-72
2022/02/01 10:36:04;;;;;;;11.78;7.08;;;;;;;1.42;82.60;100014.91;1795991;77;21059;-70
2022/02/01 10:38:49;;;;;;;10.60;6.37;;;;;;;1.50;82.65;100005.23;1789767;77;20964;-70
2022/02/01 10:41:34;;;;;;;16.23;6.62;;;;;;;1.58;82.66;100003.59;1804071;77;21587;-70
2022/02/01 10:44:22;;;;;;;19.25;8.00;;;;;;;1.66;82.68;99990.94;1647553;77;21098;-70
2022/02/01 10:47:09;;;;;;;15.55;7.70;;;;;;;1.77;82.75;99987.22;1612537;87;22007;-70
2022/02/01 10:49:53;;;;;;;13.88;6.95;;;;;;;1.87;82.74;99984.77;1648065;85;21638;-70
2022/02/01 10:52:45;;;;;;;12.78;6.80;;;;;;;1.92;82.63;99970.37;1644012;85;21103;-71
2022/02/01 10:55:30;;;;;;;17.50;8.55;;;;;;;1.99;82.64;99961.08;1643885;85;21087;-70
2022/02/01 10:58:15;;;;;;;10.00;7.55;;;;;;;2.06;82.61;99947.95;1641196;85;21094;-70
2022/02/01 11:01:03;;;;;;;20.40;7.58;;;;;;;2.06;82.53;99943.71;1652807;85;21538;-70
2022/02/01 11:03:50;;;;;;;12.55;6.75;;;;;;;2.08;82.53;99948.37;1652200;85;21103;-70
2022/02/01 11:06:36;;;;;;;13.05;6.25;;;;;;;2.13;82.67;99945.86;1649323;85;21018;-70
2022/02/01 11:09:23;;;;;;;14.63;7.58;;;;;;;2.16;82.61;99954.80;1646957;85;28350;-70
2022/02/01 11:12:11;;;;;;;11.65;6.75;;;;;;;2.16;82.60;99950.98;1644678;85;20924;-70
2022/02/01 11:14:55;;;;;;;13.28;6.37;;;;;;;2.19;82.66;99943.34;1645137;85;20924;-70
2022/02/01 11:17:41;;;;;;;12.63;6.55;;;;;;;2.25;82.66;99942.97;1657885;85;20921;-70
2022/02/01 11:20:28;;;;;;;12.17;6.83;;;;;;;2.29;82.67;99938.74;1652582;85;20972;-69
2022/02/01 11:23:22;;;;;;;19.87;7.92;;;;;;;2.30;82.64;99938.75;1645587;85;21397;-69
2022/02/01 11:26:10;;;;;;;15.60;9.40;;;;;;;2.28;82.62;99937.89;1648307;85;20948;-69
2022/02/01 11:32:00;;;;;;;13.08;9.25;;;;;;;2.27;82.62;99937.88;1609305;87;20967;-70
2022/02/01 11:34:44;;;;;;;19.65;7.78;;;;;;;2.29;82.69;99937.47;1619139;87;20958;-70
2022/02/01 11:37:29;;;;;;;13.93;9.13;;;;;;;2.29;82.67;99937.47;1620018;87;20926;-70
2022/02/01 11:40:16;;;;;;;12.68;7.65;;;;;;;2.29;82.71;99940.02;1613596;87;20982;-70
2022/02/01 11:43:03;;;;;;;;;;;;;;;2.32;82.73;99934.94;1620668;87;20988;-71
2022/02/01 11:46:00;;;;;;;13.98;7.53;;;;;;;2.32;82.74;99930.69;1623744;87;20462;-70
2022/02/01 11:48:52;;;;;;;17.40;8.45;;;;;;;2.32;82.71;99924.73;1626656;87;20993;-70
2022/02/01 11:51:37;;;;;;;20.02;10.75;;;;;;;2.31;82.74;99925.16;1612714;87;20974;-70
2022/02/01 11:54:30;;;;;;;24.10;10.35;;;;;;;2.32;82.78;99920.48;1629068;87;20925;-70
2022/02/01 11:57:29;;;;;;;17.20;8.10;;;;;;;2.32;82.74;99909.01;1625333;87;20933;-70
2022/02/01 12:00:25;;;;;;;23.10;8.73;;;;;;;2.29;82.69;99912.81;1607155;87;20942;-70
2022/02/01 12:03:10;;;;;;;16.87;8.90;;;;;;;2.27;82.68;99897.07;1638397;87;21627;-68
2022/02/01 12:06:04;;;;;;;15.60;7.63;;;;;;;2.25;82.76;99886.86;1624780;87;21536;-68
2022/02/01 12:08:43;;;;;;;18.32;8.05;;;;;;;2.26;82.72;99891.53;1615634;87;20937;-68
2022/02/01 12:11:29;;;;;;;16.52;8.03;;;;;;;2.24;82.68;99884.30;1622028;87;21442;-69
2022/02/01 12:14:14;;;;;;;24.27;9.47;;;;;;;2.20;82.68;99871.95;1633202;86;21312;-68
2022/02/01 12:16:59;;;;;;;30.23;13.85;;;;;;;2.16;82.76;99861.30;1623224;87;21192;-68
2022/02/01 12:19:55;;;;;;;23.87;10.53;;;;;;;2.15;82.73;99857.04;1635727;87;21481;-68
2022/02/01 12:22:45;;;;;;;;;;;;;;;2.13;82.74;99856.17;1624288;87;21105;-68
2022/02/01 12:25:30;;;;;;;31.70;11.93;;;;;;;2.15;82.89;99859.59;1615380;87;20249;-70
2022/02/01 12:28:24;;;;;;;31.50;11.22;;;;;;;2.18;82.85;99850.69;1609775;87;21696;-70
2022/02/01 12:31:12;;;;;;;29.05;10.95;;;;;;;2.21;82.81;99842.20;1617345;85;21605;-68
2022/02/01 12:33:59;;;;;;;26.05;9.65;;;;;;;2.23;82.83;99836.68;1634548;85;21077;-70
2022/02/01 12:36:50;;;;;;;21.30;9.33;;;;;;;2.24;82.83;99829.46;1637518;85;21025;-70
2022/02/01 12:39:35;;;;;;;20.72;8.55;;;;;;;2.28;82.92;99821.83;1638748;86;20982;-70
2022/02/01 12:42:30;;;;;;;23.00;10.35;;;;;;;2.33;82.85;99809.95;1632340;85;21073;-70
2022/02/01 12:48:10;;;;;;;17.82;7.22;;;;;;;2.48;82.94;99800.66;1643455;86;21528;-68
2022/02/01 12:51:02;;;;;;;19.32;6.37;;;;;;;2.53;82.91;99792.17;1661377;85;21065;-68
2022/02/01 12:53:49;;;;;;;14.53;6.92;;;;;;;2.56;82.85;99775.59;1641181;85;21029;-68
2022/02/01 12:56:33;;;;;;;;;;;;;;;2.60;82.87;99770.89;1637502;85;21449;-69
2022/02/01 12:59:21;;;;;;;18.12;9.03;;;;;;;2.65;82.86;99765.80;1639330;86;20132;-68
2022/02/01 13:02:10;;;;;;;18.10;8.50;;;;;;;2.64;82.83;99758.57;1517647;86;10000914;-68
2022/02/01 13:05:02;;;;;;;19.67;10.80;;;;;;;2.66;82.85;99749.64;1634939;86;21078;-68
2022/02/01 13:16:43;;;;;;;26.02;9.38;;;;;;;2.78;82.85;99743.28;1630992;86;21036;-69
2022/02/01 13:20:12;;;;;;;24.23;7.42;;;;;;;2.79;82.85;99728.39;1637451;86;21042;-69
2022/02/01 13:22:20;;;;;;;24.23;6.80;;;;;;;2.81;82.82;99722.02;1633214;86;21459;-70
2022/02/01 13:25:05;;;;;;;;;;;;;;;2.82;82.87;99719.46;1640785;85;20942;-70
2022/02/01 13:27:59;;;;;;;14.47;4.62;;;;;;;2.84;82.78;99716.91;1645615;86;20113;-70
2022/02/01 13:30:46;;;;;;;15.80;5.08;;;;;;;2.82;82.78;99718.61;1662325;85;20988;-70
2022/02/01 13:33:30;;;;;;;;;;;;;;;2.83;82.81;99707.55;1654300;85;21441;-70
2022/02/01 13:36:15;;;;;;;13.90;4.45;;;;;;;2.82;82.80;99697.77;1656511;85;20399;-70
2022/02/01 13:39:03;;;;;;;19.48;4.97;;;;;;;2.83;82.77;99686.70;1648186;85;21378;-70
2022/02/01 13:42:07;;;;;;;10.10;3.67;;;;;;;2.84;82.80;99676.91;1631812;85;20980;-70
2022/02/01 13:44:58;;;;;;;16.62;4.45;;;;;;;2.86;82.82;99673.94;1635519;85;20949;-70
2022/02/01 13:47:48;;;;;;;10.75;3.90;;;;;;;2.88;82.80;99666.28;1653561;84;20948;-67
2022/02/01 13:50:36;;;;;;;10.90;3.52;;;;;;;2.91;82.79;99656.06;1656625;85;20921;-68
2022/02/01 13:53:21;;;;;;;12.47;3.92;;;;;;;2.91;82.76;99645.42;1642138;85;20968;-68
2022/02/01 13:56:09;;;;;;;14.43;3.77;;;;;;;2.92;82.76;99625.85;1650788;85;21012;-68
2022/02/01 13:59:08;;;;;;;11.30;3.50;;;;;;;2.92;82.77;99619.47;1651308;84;20952;-68
2022/02/01 14:02:06;;;;;;;15.72;4.22;;;;;;;2.93;82.77;99614.78;1654040;85;20953;-68
2022/02/01 14:05:00;;;;;;;19.67;5.28;;;;;;;2.91;82.78;99605.85;1648931;85;21435;-68
2022/02/01 14:08:15;;;;;;;19.32;4.90;;;;;;;2.88;82.72;99593.09;1637175;85;20920;-68
2022/02/01 14:14:00;;;;;;;14.15;5.75;;;;;;;2.81;82.74;99559.91;1656472;85;21475;-68
2022/02/01 14:34:07;;;;;;;63.20;34.60;;;;;;;2.59;82.78;99505.53;1691802;84;21039;-70
2022/02/01 14:36:52;;;;;;;87.72;45.08;;;;;;;2.53;82.80;99497.87;1670650;84;21063;-70